TimeEST,TemperatureF,Dew PointF,Humidity,Sea Level PressureIn,VisibilityMPH,Wind Direction,Wind SpeedMPH,Gust SpeedMPH,PrecipitationIn,Events,Conditions,WindDirDegrees,DateUTC
12:15 AM,50.0,50.0,100,30.02,7.0,Calm,Calm,-,N/A,,Clear,0,2012-11-08 05:15:00
12:35 AM,50.0,50.0,100,30.01,5.0,Calm,Calm,-,N/A,,Clear,0,2012-11-08 05:35:00
12:55 AM,48.2,46.4,93,30.01,0.2,Calm,Calm,-,N/A,,Overcast,0,2012-11-08 05:55:00
1:15 AM,48.2,46.4,93,30.02,1.0,WNW,3.5,-,N/A,,Mostly Cloudy,290,2012-11-08 06:15:00
1:35 AM,48.2,46.4,93,30.02,5.0,Calm,Calm,-,N/A,,Clear,0,2012-11-08 06:35:00
1:55 AM,48.2,46.4,93,30.03,5.0,West,3.5,-,N/A,,Clear,280,2012-11-08 06:55:00
2:15 AM,48.2,48.2,100,30.03,4.0,WNW,3.5,-,N/A,,Mostly Cloudy,300,2012-11-08 07:15:00
2:35 AM,48.2,48.2,100,30.03,7.0,WNW,3.5,-,N/A,,Overcast,300,2012-11-08 07:35:00
2:55 AM,48.2,48.2,100,30.03,5.0,WNW,3.5,-,N/A,,Overcast,290,2012-11-08 07:55:00
3:15 AM,48.2,48.2,100,30.03,4.0,WNW,4.6,-,N/A,,Overcast,300,2012-11-08 08:15:00
3:35 AM,48.2,48.2,100,30.03,3.0,WNW,4.6,-,N/A,,Overcast,300,2012-11-08 08:35:00
3:55 AM,48.2,46.4,93,30.04,1.8,WNW,6.9,-,N/A,,Overcast,300,2012-11-08 08:55:00
4:15 AM,48.2,46.4,93,30.04,1.8,WNW,4.6,-,N/A,,Overcast,300,2012-11-08 09:15:00
4:35 AM,48.2,46.4,93,30.05,4.0,WNW,3.5,-,N/A,,Overcast,300,2012-11-08 09:35:00
4:55 AM,46.4,46.4,100,30.06,2.5,WNW,3.5,-,N/A,,Overcast,300,2012-11-08 09:55:00
5:15 AM,46.4,46.4,100,30.06,2.5,WNW,4.6,-,N/A,,Overcast,290,2012-11-08 10:15:00
5:35 AM,46.4,46.4,100,30.07,2.5,WNW,3.5,-,N/A,,Overcast,300,2012-11-08 10:35:00
5:55 AM,46.4,46.4,100,30.08,3.0,NW,5.8,-,N/A,,Overcast,320,2012-11-08 10:55:00
6:15 AM,48.2,46.4,93,30.08,3.0,NW,4.6,-,N/A,,Overcast,310,2012-11-08 11:15:00
6:35 AM,48.2,46.4,93,30.09,3.0,NW,5.8,-,N/A,,Overcast,320,2012-11-08 11:35:00
6:55 AM,48.2,46.4,93,30.10,2.5,WNW,4.6,-,N/A,,Overcast,300,2012-11-08 11:55:00
7:15 AM,48.2,46.4,93,30.10,2.0,NW,5.8,-,N/A,,Overcast,310,2012-11-08 12:15:00
7:35 AM,48.2,48.2,100,30.11,2.5,NW,4.6,-,N/A,,Overcast,310,2012-11-08 12:35:00
7:55 AM,50.0,48.2,94,30.12,2.5,WNW,4.6,-,N/A,,Overcast,290,2012-11-08 12:55:00
8:15 AM,50.0,48.2,94,30.12,3.0,WNW,4.6,-,N/A,,Mostly Cloudy,300,2012-11-08 13:15:00
8:35 AM,51.8,50.0,94,30.14,4.0,NNW,4.6,-,N/A,,Scattered Clouds,330,2012-11-08 13:35:00
8:55 AM,51.8,50.0,94,30.14,7.0,NW,5.8,-,N/A,,Clear,310,2012-11-08 13:55:00
9:15 AM,53.6,50.0,88,30.15,10.0,NNW,5.8,-,N/A,,Clear,330,2012-11-08 14:15:00
9:35 AM,55.4,50.0,82,30.15,10.0,NW,4.6,-,N/A,,Clear,310,2012-11-08 14:35:00
9:55 AM,55.4,51.8,88,30.16,10.0,West,6.9,-,N/A,,Clear,280,2012-11-08 14:55:00
10:15 AM,59.0,50.0,72,30.16,10.0,North,5.8,-,N/A,,Clear,350,2012-11-08 15:15:00
10:35 AM,59.0,50.0,72,30.16,10.0,NNW,4.6,-,N/A,,Clear,340,2012-11-08 15:35:00
10:55 AM,60.8,50.0,68,30.16,10.0,WNW,3.5,-,N/A,,Clear,300,2012-11-08 15:55:00
11:15 AM,60.8,46.4,59,30.16,10.0,NNE,5.8,-,N/A,,Clear,20,2012-11-08 16:15:00
11:35 AM,62.6,46.4,55,30.16,10.0,WNW,6.9,-,N/A,,Clear,300,2012-11-08 16:35:00
11:55 AM,62.6,46.4,55,30.16,10.0,WNW,4.6,-,N/A,,Clear,300,2012-11-08 16:55:00
12:15 PM,64.4,46.4,52,30.15,10.0,NW,6.9,-,N/A,,Clear,320,2012-11-08 17:15:00
12:35 PM,64.4,46.4,52,30.14,10.0,North,5.8,-,N/A,,Clear,350,2012-11-08 17:35:00
12:55 PM,66.2,46.4,49,30.13,10.0,NW,5.8,-,N/A,,Clear,310,2012-11-08 17:55:00
1:15 PM,66.2,46.4,49,30.12,10.0,NW,3.5,-,N/A,,Clear,310,2012-11-08 18:15:00
1:35 PM,68.0,46.4,46,30.12,10.0,NW,9.2,-,N/A,,Clear,310,2012-11-08 18:35:00
1:55 PM,66.2,44.6,46,30.11,10.0,WNW,3.5,-,N/A,,Clear,290,2012-11-08 18:55:00
2:15 PM,68.0,42.8,40,30.11,10.0,North,3.5,-,N/A,,Clear,350,2012-11-08 19:15:00
2:35 PM,68.0,44.6,43,30.11,10.0,West,6.9,-,N/A,,Clear,280,2012-11-08 19:35:00
2:55 PM,68.0,42.8,40,30.10,10.0,NW,3.5,-,N/A,,Clear,320,2012-11-08 19:55:00
3:15 PM,68.0,44.6,43,30.11,10.0,Calm,Calm,-,N/A,,Clear,0,2012-11-08 20:15:00
3:35 PM,68.0,42.8,40,30.11,10.0,NW,6.9,-,N/A,,Clear,320,2012-11-08 20:35:00
3:55 PM,68.0,42.8,40,30.11,10.0,WNW,4.6,-,N/A,,Clear,290,2012-11-08 20:55:00
4:15 PM,68.0,42.8,40,30.11,10.0,WNW,6.9,-,N/A,,Clear,290,2012-11-08 21:15:00
4:35 PM,68.0,42.8,40,30.11,10.0,Calm,Calm,-,N/A,,Clear,0,2012-11-08 21:35:00
4:55 PM,64.4,44.6,49,30.11,10.0,Calm,Calm,-,N/A,,Clear,0,2012-11-08 21:55:00
5:15 PM,60.8,50.0,68,30.12,10.0,Calm,Calm,-,N/A,,Clear,0,2012-11-08 22:15:00
5:35 PM,57.2,50.0,77,30.13,10.0,Calm,Calm,-,N/A,,Clear,0,2012-11-08 22:35:00
5:55 PM,55.4,50.0,82,30.13,10.0,Calm,Calm,-,N/A,,Clear,0,2012-11-08 22:55:00
6:15 PM,53.6,50.0,88,30.14,10.0,Calm,Calm,-,N/A,,Clear,0,2012-11-08 23:15:00
6:35 PM,51.8,50.0,94,30.15,10.0,Calm,Calm,-,N/A,,Clear,0,2012-11-08 23:35:00
6:55 PM,51.8,50.0,94,30.16,10.0,Calm,Calm,-,N/A,,Clear,0,2012-11-08 23:55:00
7:15 PM,51.8,50.0,94,30.16,10.0,Calm,Calm,-,N/A,,Clear,0,2012-11-09 00:15:00
7:35 PM,50.0,48.2,94,30.16,10.0,Calm,Calm,-,N/A,,Clear,0,2012-11-09 00:35:00
7:55 PM,50.0,48.2,94,30.16,10.0,Calm,Calm,-,N/A,,Clear,0,2012-11-09 00:55:00
8:15 PM,50.0,48.2,94,30.17,7.0,Calm,Calm,-,N/A,,Clear,0,2012-11-09 01:15:00
8:35 PM,48.2,46.4,93,30.17,2.5,Calm,Calm,-,N/A,,Clear,0,2012-11-09 01:35:00
8:55 PM,48.2,46.4,93,30.18,5.0,Calm,Calm,-,N/A,,Clear,0,2012-11-09 01:55:00
9:15 PM,48.2,46.4,93,30.18,2.0,Calm,Calm,-,N/A,,Clear,0,2012-11-09 02:15:00
9:35 PM,46.4,44.6,93,30.18,0.5,Calm,Calm,-,N/A,,Unknown,0,2012-11-09 02:35:00
9:55 PM,46.4,46.4,100,30.18,1.8,Calm,Calm,-,N/A,,Unknown,0,2012-11-09 02:55:00
10:15 PM,46.4,44.6,93,30.19,5.0,Calm,Calm,-,N/A,,Clear,0,2012-11-09 03:15:00
10:35 PM,46.4,44.6,93,30.19,1.0,Calm,Calm,-,N/A,,Scattered Clouds,0,2012-11-09 03:35:00
10:55 PM,44.6,44.6,100,30.19,0.8,Calm,Calm,-,N/A,,Unknown,0,2012-11-09 03:55:00
11:15 PM,44.6,42.8,93,30.19,0.2,Calm,Calm,-,N/A,,Mostly Cloudy,0,2012-11-09 04:15:00
11:35 PM,44.6,44.6,100,30.19,3.0,Calm,Calm,-,N/A,,Clear,0,2012-11-09 04:35:00
11:55 PM,44.6,42.8,93,30.19,0.2,Calm,Calm,-,N/A,,Unknown,0,2012-11-09 04:55:00